sensor_id;sensor_type;location;lat;lon;timestamp;P1;durP1;ratioP1;P2;durP2;ratioP2
26536;SDS011;14204;51.262;5.488;2023-08-21T00:02:24;8.02;;;2.85;;
26536;SDS011;14204;51.262;5.488;2023-08-21T00:04:53;6.72;;;3.00;;
26536;SDS011;14204;51.262;5.488;2023-08-21T00:07:19;7.15;;;2.72;;
26536;SDS011;14204;51.262;5.488;2023-08-21T00:09:44;7.45;;;2.45;;
26536;SDS011;14204;51.262;5.488;2023-08-21T00:12:10;7.70;;;2.72;;
26536;SDS011;14204;51.262;5.488;2023-08-21T00:14:36;6.28;;;2.15;;
26536;SDS011;14204;51.262;5.488;2023-08-21T00:17:02;5.72;;;2.40;;
26536;SDS011;14204;51.262;5.488;2023-08-21T00:19:28;6.15;;;2.45;;
26536;SDS011;14204;51.262;5.488;2023-08-21T00:21:54;10.13;;;2.60;;
26536;SDS011;14204;51.262;5.488;2023-08-21T00:24:20;6.68;;;2.63;;
26536;SDS011;14204;51.262;5.488;2023-08-21T00:26:46;10.43;;;2.65;;
26536;SDS011;14204;51.262;5.488;2023-08-21T00:29:12;7.43;;;2.55;;
26536;SDS011;14204;51.262;5.488;2023-08-21T00:31:38;4.32;;;2.17;;
26536;SDS011;14204;51.262;5.488;2023-08-21T00:34:03;7.53;;;1.75;;
26536;SDS011;14204;51.262;5.488;2023-08-21T00:36:29;7.78;;;2.63;;
26536;SDS011;14204;51.262;5.488;2023-08-21T00:38:55;5.72;;;2.40;;
26536;SDS011;14204;51.262;5.488;2023-08-21T00:41:21;11.18;;;2.90;;
26536;SDS011;14204;51.262;5.488;2023-08-21T00:43:46;6.72;;;2.20;;
26536;SDS011;14204;51.262;5.488;2023-08-21T00:46:13;8.73;;;2.47;;
26536;SDS011;14204;51.262;5.488;2023-08-21T00:48:39;5.20;;;2.35;;
26536;SDS011;14204;51.262;5.488;2023-08-21T00:51:05;7.32;;;2.42;;
26536;SDS011;14204;51.262;5.488;2023-08-21T00:53:32;9.07;;;3.20;;
26536;SDS011;14204;51.262;5.488;2023-08-21T00:55:58;9.32;;;2.40;;
26536;SDS011;14204;51.262;5.488;2023-08-21T00:58:24;11.15;;;3.05;;
26536;SDS011;14204;51.262;5.488;2023-08-21T01:00:50;10.20;;;3.25;;
26536;SDS011;14204;51.262;5.488;2023-08-21T01:03:17;5.57;;;2.90;;
26536;SDS011;14204;51.262;5.488;2023-08-21T01:05:43;6.43;;;2.55;;
26536;SDS011;14204;51.262;5.488;2023-08-21T01:08:45;8.93;;;2.55;;
26536;SDS011;14204;51.262;5.488;2023-08-21T01:11:31;3.45;;;2.60;;
26536;SDS011;14204;51.262;5.488;2023-08-21T01:14:42;6.43;;;2.70;;
26536;SDS011;14204;51.262;5.488;2023-08-21T01:17:14;5.22;;;2.30;;
26536;SDS011;14204;51.262;5.488;2023-08-21T01:19:43;8.75;;;2.70;;
26536;SDS011;14204;51.262;5.488;2023-08-21T01:22:12;6.00;;;2.60;;
26536;SDS011;14204;51.262;5.488;2023-08-21T01:24:38;5.82;;;2.55;;
26536;SDS011;14204;51.262;5.488;2023-08-21T01:27:04;6.85;;;2.58;;
26536;SDS011;14204;51.262;5.488;2023-08-21T01:29:30;5.40;;;2.50;;
26536;SDS011;14204;51.262;5.488;2023-08-21T01:32:14;11.43;;;3.00;;
26536;SDS011;14204;51.262;5.488;2023-08-21T01:34:44;9.50;;;2.95;;
26536;SDS011;14204;51.262;5.488;2023-08-21T01:37:12;8.05;;;3.38;;
26536;SDS011;14204;51.262;5.488;2023-08-21T01:39:39;6.45;;;2.85;;
26536;SDS011;14204;51.262;5.488;2023-08-21T01:42:05;8.18;;;3.10;;
26536;SDS011;14204;51.262;5.488;2023-08-21T01:44:30;7.72;;;2.97;;
26536;SDS011;14204;51.262;5.488;2023-08-21T01:46:56;8.75;;;2.70;;
26536;SDS011;14204;51.262;5.488;2023-08-21T01:49:22;9.82;;;3.00;;
26536;SDS011;14204;51.262;5.488;2023-08-21T01:51:48;8.82;;;2.95;;
26536;SDS011;14204;51.262;5.488;2023-08-21T01:54:14;7.50;;;2.80;;
26536;SDS011;14204;51.262;5.488;2023-08-21T01:56:39;8.40;;;2.63;;
26536;SDS011;14204;51.262;5.488;2023-08-21T01:59:05;7.50;;;2.92;;
26536;SDS011;14204;51.262;5.488;2023-08-21T02:01:32;6.07;;;1.95;;
26536;SDS011;14204;51.262;5.488;2023-08-21T02:03:58;10.32;;;2.53;;
26536;SDS011;14204;51.262;5.488;2023-08-21T02:06:23;12.95;;;2.92;;
26536;SDS011;14204;51.262;5.488;2023-08-21T02:08:49;5.90;;;2.80;;
26536;SDS011;14204;51.262;5.488;2023-08-21T02:11:15;9.07;;;3.00;;
26536;SDS011;14204;51.262;5.488;2023-08-21T02:13:41;7.68;;;3.22;;
26536;SDS011;14204;51.262;5.488;2023-08-21T02:16:06;7.75;;;2.70;;
26536;SDS011;14204;51.262;5.488;2023-08-21T02:18:32;5.60;;;2.95;;
26536;SDS011;14204;51.262;5.488;2023-08-21T02:20:59;7.70;;;2.78;;
26536;SDS011;14204;51.262;5.488;2023-08-21T02:23:26;5.97;;;2.72;;
26536;SDS011;14204;51.262;5.488;2023-08-21T02:25:51;9.75;;;3.72;;
26536;SDS011;14204;51.262;5.488;2023-08-21T02:28:17;6.53;;;2.53;;
26536;SDS011;14204;51.262;5.488;2023-08-21T02:30:43;6.63;;;2.83;;
26536;SDS011;14204;51.262;5.488;2023-08-21T02:33:09;5.18;;;2.63;;
26536;SDS011;14204;51.262;5.488;2023-08-21T02:35:34;6.07;;;2.88;;
26536;SDS011;14204;51.262;5.488;2023-08-21T02:38:01;8.40;;;3.30;;
26536;SDS011;14204;51.262;5.488;2023-08-21T02:40:27;9.30;;;3.22;;
26536;SDS011;14204;51.262;5.488;2023-08-21T02:42:52;8.30;;;3.42;;
26536;SDS011;14204;51.262;5.488;2023-08-21T02:45:18;7.68;;;3.30;;
26536;SDS011;14204;51.262;5.488;2023-08-21T02:47:44;10.75;;;3.30;;
26536;SDS011;14204;51.262;5.488;2023-08-21T02:50:10;9.68;;;3.13;;
26536;SDS011;14204;51.262;5.488;2023-08-21T02:52:36;5.88;;;2.72;;
26536;SDS011;14204;51.262;5.488;2023-08-21T02:55:03;6.57;;;2.42;;
26536;SDS011;14204;51.262;5.488;2023-08-21T02:57:29;5.25;;;2.72;;
26536;SDS011;14204;51.262;5.488;2023-08-21T02:59:55;6.72;;;2.97;;
26536;SDS011;14204;51.262;5.488;2023-08-21T03:02:21;8.50;;;3.05;;
26536;SDS011;14204;51.262;5.488;2023-08-21T03:04:47;10.73;;;3.30;;
26536;SDS011;14204;51.262;5.488;2023-08-21T03:07:14;9.88;;;3.10;;
26536;SDS011;14204;51.262;5.488;2023-08-21T03:09:40;10.15;;;2.92;;
26536;SDS011;14204;51.262;5.488;2023-08-21T03:12:07;6.07;;;2.70;;
26536;SDS011;14204;51.262;5.488;2023-08-21T03:14:33;10.23;;;2.88;;
26536;SDS011;14204;51.262;5.488;2023-08-21T03:16:59;12.00;;;3.05;;
26536;SDS011;14204;51.262;5.488;2023-08-21T03:19:25;8.63;;;3.33;;
26536;SDS011;14204;51.262;5.488;2023-08-21T03:21:51;9.48;;;2.90;;
26536;SDS011;14204;51.262;5.488;2023-08-21T03:24:17;8.00;;;2.92;;
26536;SDS011;14204;51.262;5.488;2023-08-21T03:26:42;9.40;;;2.88;;
26536;SDS011;14204;51.262;5.488;2023-08-21T03:29:08;7.95;;;2.80;;
26536;SDS011;14204;51.262;5.488;2023-08-21T03:31:34;10.88;;;2.97;;
26536;SDS011;14204;51.262;5.488;2023-08-21T03:34:00;14.13;;;3.67;;
26536;SDS011;14204;51.262;5.488;2023-08-21T03:36:26;7.97;;;2.55;;
26536;SDS011;14204;51.262;5.488;2023-08-21T03:38:58;6.93;;;2.63;;
26536;SDS011;14204;51.262;5.488;2023-08-21T03:41:25;7.55;;;2.60;;
26536;SDS011;14204;51.262;5.488;2023-08-21T03:43:51;11.52;;;3.10;;
26536;SDS011;14204;51.262;5.488;2023-08-21T03:46:17;7.53;;;3.00;;
26536;SDS011;14204;51.262;5.488;2023-08-21T03:48:42;7.82;;;2.80;;
26536;SDS011;14204;51.262;5.488;2023-08-21T03:51:08;10.32;;;2.70;;
26536;SDS011;14204;51.262;5.488;2023-08-21T03:53:34;13.27;;;2.63;;
26536;SDS011;14204;51.262;5.488;2023-08-21T03:56:00;7.13;;;2.70;;
26536;SDS011;14204;51.262;5.488;2023-08-21T03:58:26;6.90;;;2.90;;
26536;SDS011;14204;51.262;5.488;2023-08-21T04:00:52;9.18;;;2.90;;
26536;SDS011;14204;51.262;5.488;2023-08-21T04:03:18;7.43;;;2.72;;
26536;SDS011;14204;51.262;5.488;2023-08-21T04:05:45;11.02;;;2.60;;
26536;SDS011;14204;51.262;5.488;2023-08-21T04:08:10;11.45;;;2.67;;
26536;SDS011;14204;51.262;5.488;2023-08-21T04:10:36;7.13;;;2.58;;
26536;SDS011;14204;51.262;5.488;2023-08-21T04:13:04;6.93;;;2.80;;
26536;SDS011;14204;51.262;5.488;2023-08-21T04:15:30;7.60;;;2.50;;
26536;SDS011;14204;51.262;5.488;2023-08-21T04:17:56;5.50;;;2.10;;
26536;SDS011;14204;51.262;5.488;2023-08-21T04:20:22;8.50;;;2.65;;
26536;SDS011;14204;51.262;5.488;2023-08-21T04:22:48;8.43;;;2.90;;
26536;SDS011;14204;51.262;5.488;2023-08-21T04:25:14;8.73;;;2.40;;
26536;SDS011;14204;51.262;5.488;2023-08-21T04:27:41;10.20;;;3.00;;
26536;SDS011;14204;51.262;5.488;2023-08-21T04:30:07;6.00;;;2.50;;
26536;SDS011;14204;51.262;5.488;2023-08-21T04:32:34;9.27;;;2.97;;
26536;SDS011;14204;51.262;5.488;2023-08-21T04:35:00;8.82;;;2.97;;
26536;SDS011;14204;51.262;5.488;2023-08-21T04:37:26;6.13;;;2.50;;
26536;SDS011;14204;51.262;5.488;2023-08-21T04:39:52;8.40;;;3.15;;
26536;SDS011;14204;51.262;5.488;2023-08-21T04:42:19;6.65;;;2.97;;
26536;SDS011;14204;51.262;5.488;2023-08-21T04:44:45;9.05;;;3.28;;
26536;SDS011;14204;51.262;5.488;2023-08-21T04:49:52;9.13;;;3.00;;
26536;SDS011;14204;51.262;5.488;2023-08-21T04:52:19;7.75;;;3.40;;
26536;SDS011;14204;51.262;5.488;2023-08-21T04:54:46;9.45;;;2.65;;
26536;SDS011;14204;51.262;5.488;2023-08-21T04:57:12;11.88;;;2.85;;
26536;SDS011;14204;51.262;5.488;2023-08-21T04:59:39;10.27;;;2.75;;
26536;SDS011;14204;51.262;5.488;2023-08-21T05:02:05;8.25;;;2.92;;
26536;SDS011;14204;51.262;5.488;2023-08-21T05:04:30;6.72;;;2.80;;
26536;SDS011;14204;51.262;5.488;2023-08-21T05:06:56;8.25;;;3.22;;
26536;SDS011;14204;51.262;5.488;2023-08-21T05:09:22;9.43;;;3.53;;
26536;SDS011;14204;51.262;5.488;2023-08-21T05:11:48;4.50;;;2.60;;
26536;SDS011;14204;51.262;5.488;2023-08-21T05:14:13;5.90;;;2.75;;
26536;SDS011;14204;51.262;5.488;2023-08-21T05:16:39;8.63;;;2.80;;
26536;SDS011;14204;51.262;5.488;2023-08-21T05:19:05;6.35;;;2.72;;
26536;SDS011;14204;51.262;5.488;2023-08-21T05:21:30;7.90;;;3.25;;
26536;SDS011;14204;51.262;5.488;2023-08-21T05:23:56;9.00;;;3.50;;
26536;SDS011;14204;51.262;5.488;2023-08-21T05:26:22;9.15;;;3.40;;
26536;SDS011;14204;51.262;5.488;2023-08-21T05:28:48;7.93;;;3.22;;
26536;SDS011;14204;51.262;5.488;2023-08-21T05:31:13;9.52;;;3.33;;
26536;SDS011;14204;51.262;5.488;2023-08-21T05:33:39;10.25;;;3.28;;
26536;SDS011;14204;51.262;5.488;2023-08-21T05:36:05;7.55;;;3.08;;
26536;SDS011;14204;51.262;5.488;2023-08-21T05:38:32;4.10;;;2.58;;
26536;SDS011;14204;51.262;5.488;2023-08-21T05:40:58;11.23;;;3.65;;
26536;SDS011;14204;51.262;5.488;2023-08-21T05:43:24;13.68;;;3.85;;
26536;SDS011;14204;51.262;5.488;2023-08-21T05:45:50;10.02;;;3.25;;
26536;SDS011;14204;51.262;5.488;2023-08-21T05:48:16;4.75;;;2.92;;
26536;SDS011;14204;51.262;5.488;2023-08-21T05:50:44;9.75;;;3.25;;
26536;SDS011;14204;51.262;5.488;2023-08-21T05:53:10;9.70;;;3.50;;
26536;SDS011;14204;51.262;5.488;2023-08-21T05:55:39;9.93;;;4.15;;
26536;SDS011;14204;51.262;5.488;2023-08-21T05:58:05;10.93;;;3.95;;
26536;SDS011;14204;51.262;5.488;2023-08-21T06:00:32;10.18;;;4.60;;
26536;SDS011;14204;51.262;5.488;2023-08-21T06:02:58;7.80;;;4.22;;
26536;SDS011;14204;51.262;5.488;2023-08-21T06:05:24;9.88;;;4.45;;
26536;SDS011;14204;51.262;5.488;2023-08-21T06:07:50;7.20;;;4.97;;
26536;SDS011;14204;51.262;5.488;2023-08-21T06:10:16;14.15;;;4.75;;
26536;SDS011;14204;51.262;5.488;2023-08-21T06:12:42;10.38;;;5.22;;
26536;SDS011;14204;51.262;5.488;2023-08-21T06:15:09;10.18;;;5.65;;
26536;SDS011;14204;51.262;5.488;2023-08-21T06:17:35;18.52;;;6.18;;
26536;SDS011;14204;51.262;5.488;2023-08-21T06:20:01;17.23;;;6.43;;
26536;SDS011;14204;51.262;5.488;2023-08-21T06:22:30;11.75;;;6.05;;
26536;SDS011;14204;51.262;5.488;2023-08-21T06:24:57;15.25;;;5.45;;
26536;SDS011;14204;51.262;5.488;2023-08-21T06:27:23;20.40;;;6.88;;
26536;SDS011;14204;51.262;5.488;2023-08-21T06:29:48;11.65;;;7.03;;
26536;SDS011;14204;51.262;5.488;2023-08-21T06:32:35;15.98;;;7.70;;
26536;SDS011;14204;51.262;5.488;2023-08-21T06:35:06;13.43;;;8.10;;
26536;SDS011;14204;51.262;5.488;2023-08-21T06:37:32;18.40;;;9.07;;
26536;SDS011;14204;51.262;5.488;2023-08-21T06:39:58;10.68;;;7.82;;
26536;SDS011;14204;51.262;5.488;2023-08-21T06:42:23;17.08;;;9.00;;
26536;SDS011;14204;51.262;5.488;2023-08-21T06:44:49;19.20;;;8.95;;
26536;SDS011;14204;51.262;5.488;2023-08-21T06:47:15;12.85;;;8.20;;
26536;SDS011;14204;51.262;5.488;2023-08-21T06:49:41;14.05;;;9.07;;
26536;SDS011;14204;51.262;5.488;2023-08-21T06:52:07;17.70;;;8.68;;
26536;SDS011;14204;51.262;5.488;2023-08-21T06:54:33;17.95;;;9.27;;
26536;SDS011;14204;51.262;5.488;2023-08-21T06:56:59;20.15;;;10.38;;
26536;SDS011;14204;51.262;5.488;2023-08-21T06:59:24;29.88;;;11.27;;
26536;SDS011;14204;51.262;5.488;2023-08-21T07:01:51;18.60;;;9.55;;
26536;SDS011;14204;51.262;5.488;2023-08-21T07:04:21;22.02;;;9.18;;
26536;SDS011;14204;51.262;5.488;2023-08-21T07:06:52;13.63;;;8.85;;
26536;SDS011;14204;51.262;5.488;2023-08-21T07:09:22;14.27;;;7.63;;
26536;SDS011;14204;51.262;5.488;2023-08-21T07:11:48;13.10;;;6.97;;
26536;SDS011;14204;51.262;5.488;2023-08-21T07:14:14;10.00;;;5.95;;
26536;SDS011;14204;51.262;5.488;2023-08-21T07:16:39;12.00;;;7.22;;
26536;SDS011;14204;51.262;5.488;2023-08-21T07:19:05;10.70;;;5.97;;
26536;SDS011;14204;51.262;5.488;2023-08-21T07:21:31;16.98;;;5.43;;
26536;SDS011;14204;51.262;5.488;2023-08-21T07:24:00;11.77;;;5.30;;
26536;SDS011;14204;51.262;5.488;2023-08-21T07:26:28;11.65;;;4.82;;
26536;SDS011;14204;51.262;5.488;2023-08-21T07:28:54;14.15;;;4.90;;
26536;SDS011;14204;51.262;5.488;2023-08-21T07:31:20;9.18;;;3.92;;
26536;SDS011;14204;51.262;5.488;2023-08-21T07:33:46;9.82;;;4.70;;
26536;SDS011;14204;51.262;5.488;2023-08-21T07:36:16;18.58;;;4.93;;
26536;SDS011;14204;51.262;5.488;2023-08-21T07:38:45;8.98;;;3.67;;
26536;SDS011;14204;51.262;5.488;2023-08-21T07:41:12;16.73;;;3.70;;
26536;SDS011;14204;51.262;5.488;2023-08-21T07:43:42;14.23;;;5.57;;
26536;SDS011;14204;51.262;5.488;2023-08-21T07:46:10;11.57;;;5.60;;
26536;SDS011;14204;51.262;5.488;2023-08-21T07:48:43;12.20;;;4.50;;
26536;SDS011;14204;51.262;5.488;2023-08-21T07:51:10;8.85;;;4.68;;
26536;SDS011;14204;51.262;5.488;2023-08-21T07:53:36;7.85;;;4.72;;
26536;SDS011;14204;51.262;5.488;2023-08-21T07:56:03;13.40;;;4.72;;
26536;SDS011;14204;51.262;5.488;2023-08-21T07:58:29;11.10;;;4.60;;
26536;SDS011;14204;51.262;5.488;2023-08-21T08:00:56;10.82;;;4.97;;
26536;SDS011;14204;51.262;5.488;2023-08-21T08:03:22;9.82;;;3.85;;
26536;SDS011;14204;51.262;5.488;2023-08-21T08:05:48;10.13;;;2.95;;
26536;SDS011;14204;51.262;5.488;2023-08-21T08:08:16;7.70;;;3.00;;
26536;SDS011;14204;51.262;5.488;2023-08-21T08:10:42;11.57;;;2.90;;
26536;SDS011;14204;51.262;5.488;2023-08-21T08:13:08;11.95;;;2.53;;
26536;SDS011;14204;51.262;5.488;2023-08-21T08:15:34;10.60;;;2.92;;
26536;SDS011;14204;51.262;5.488;2023-08-21T08:18:01;11.10;;;2.40;;
26536;SDS011;14204;51.262;5.488;2023-08-21T08:20:27;7.85;;;2.53;;
26536;SDS011;14204;51.262;5.488;2023-08-21T08:22:54;8.80;;;2.10;;
26536;SDS011;14204;51.262;5.488;2023-08-21T08:25:19;5.70;;;2.20;;
26536;SDS011;14204;51.262;5.488;2023-08-21T08:27:45;8.38;;;2.20;;
26536;SDS011;14204;51.262;5.488;2023-08-21T08:30:11;5.05;;;1.90;;
26536;SDS011;14204;51.262;5.488;2023-08-21T08:32:37;5.72;;;1.80;;
26536;SDS011;14204;51.262;5.488;2023-08-21T08:35:05;6.97;;;2.30;;
26536;SDS011;14204;51.262;5.488;2023-08-21T08:37:32;8.20;;;2.25;;
26536;SDS011;14204;51.262;5.488;2023-08-21T08:39:58;6.63;;;1.88;;
26536;SDS011;14204;51.262;5.488;2023-08-21T08:42:24;8.82;;;1.92;;
26536;SDS011;14204;51.262;5.488;2023-08-21T08:44:49;7.70;;;1.95;;
26536;SDS011;14204;51.262;5.488;2023-08-21T08:47:19;5.40;;;2.53;;
26536;SDS011;14204;51.262;5.488;2023-08-21T08:49:47;9.55;;;1.90;;
26536;SDS011;14204;51.262;5.488;2023-08-21T08:52:14;8.05;;;2.85;;
26536;SDS011;14204;51.262;5.488;2023-08-21T08:54:42;5.97;;;2.10;;
26536;SDS011;14204;51.262;5.488;2023-08-21T08:57:09;7.32;;;2.10;;
26536;SDS011;14204;51.262;5.488;2023-08-21T08:59:34;5.03;;;1.77;;
26536;SDS011;14204;51.262;5.488;2023-08-21T09:02:00;6.07;;;1.80;;
26536;SDS011;14204;51.262;5.488;2023-08-21T09:04:26;4.90;;;1.95;;
26536;SDS011;14204;51.262;5.488;2023-08-21T09:06:52;7.00;;;1.90;;
26536;SDS011;14204;51.262;5.488;2023-08-21T09:09:36;9.43;;;1.75;;
26536;SDS011;14204;51.262;5.488;2023-08-21T09:12:12;7.85;;;1.77;;
26536;SDS011;14204;51.262;5.488;2023-08-21T09:14:39;7.53;;;1.65;;
26536;SDS011;14204;51.262;5.488;2023-08-21T09:17:06;7.68;;;2.08;;
26536;SDS011;14204;51.262;5.488;2023-08-21T09:19:32;12.93;;;2.70;;
26536;SDS011;14204;51.262;5.488;2023-08-21T09:21:58;7.15;;;1.75;;
26536;SDS011;14204;51.262;5.488;2023-08-21T09:24:24;6.93;;;2.10;;
26536;SDS011;14204;51.262;5.488;2023-08-21T09:26:50;4.45;;;1.67;;
26536;SDS011;14204;51.262;5.488;2023-08-21T09:29:16;8.10;;;2.53;;
26536;SDS011;14204;51.262;5.488;2023-08-21T09:31:42;6.50;;;2.03;;
26536;SDS011;14204;51.262;5.488;2023-08-21T09:34:10;6.93;;;2.20;;
26536;SDS011;14204;51.262;5.488;2023-08-21T09:36:37;5.65;;;1.67;;
26536;SDS011;14204;51.262;5.488;2023-08-21T09:39:04;5.93;;;2.35;;
26536;SDS011;14204;51.262;5.488;2023-08-21T09:41:31;8.35;;;1.70;;
26536;SDS011;14204;51.262;5.488;2023-08-21T09:44:00;5.18;;;1.90;;
26536;SDS011;14204;51.262;5.488;2023-08-21T09:46:26;8.45;;;1.95;;
26536;SDS011;14204;51.262;5.488;2023-08-21T09:48:53;12.48;;;2.05;;
26536;SDS011;14204;51.262;5.488;2023-08-21T09:51:19;5.55;;;1.75;;
26536;SDS011;14204;51.262;5.488;2023-08-21T09:53:49;5.97;;;2.00;;
26536;SDS011;14204;51.262;5.488;2023-08-21T09:56:17;7.15;;;1.88;;
26536;SDS011;14204;51.262;5.488;2023-08-21T09:58:45;6.22;;;1.80;;
26536;SDS011;14204;51.262;5.488;2023-08-21T10:01:15;5.93;;;1.65;;
26536;SDS011;14204;51.262;5.488;2023-08-21T10:03:43;5.57;;;2.22;;
26536;SDS011;14204;51.262;5.488;2023-08-21T10:06:12;4.35;;;1.60;;
26536;SDS011;14204;51.262;5.488;2023-08-21T10:08:43;7.22;;;1.73;;
26536;SDS011;14204;51.262;5.488;2023-08-21T10:11:14;6.78;;;1.65;;
26536;SDS011;14204;51.262;5.488;2023-08-21T10:13:43;6.40;;;2.10;;
26536;SDS011;14204;51.262;5.488;2023-08-21T10:16:09;7.35;;;2.10;;
26536;SDS011;14204;51.262;5.488;2023-08-21T10:18:36;4.63;;;1.92;;
26536;SDS011;14204;51.262;5.488;2023-08-21T10:23:42;6.38;;;1.85;;
26536;SDS011;14204;51.262;5.488;2023-08-21T10:26:11;6.05;;;1.75;;
26536;SDS011;14204;51.262;5.488;2023-08-21T10:28:54;4.90;;;1.40;;
26536;SDS011;14204;51.262;5.488;2023-08-21T10:31:30;5.97;;;1.95;;
26536;SDS011;14204;51.262;5.488;2023-08-21T10:33:56;7.40;;;1.85;;
26536;SDS011;14204;51.262;5.488;2023-08-21T10:49:47;5.70;;;1.50;;
26536;SDS011;14204;51.262;5.488;2023-08-21T10:52:22;7.28;;;1.77;;
26536;SDS011;14204;51.262;5.488;2023-08-21T10:54:55;6.45;;;2.22;;
26536;SDS011;14204;51.262;5.488;2023-08-21T10:57:22;5.78;;;2.17;;
26536;SDS011;14204;51.262;5.488;2023-08-21T10:59:56;4.85;;;1.73;;
26536;SDS011;14204;51.262;5.488;2023-08-21T11:02:23;6.78;;;2.17;;
26536;SDS011;14204;51.262;5.488;2023-08-21T11:04:51;8.30;;;2.08;;
26536;SDS011;14204;51.262;5.488;2023-08-21T11:07:18;9.40;;;2.25;;
26536;SDS011;14204;51.262;5.488;2023-08-21T11:09:44;6.18;;;1.80;;
26536;SDS011;14204;51.262;5.488;2023-08-21T11:12:10;5.07;;;1.80;;
26536;SDS011;14204;51.262;5.488;2023-08-21T11:14:38;3.20;;;1.73;;
26536;SDS011;14204;51.262;5.488;2023-08-21T11:17:04;6.18;;;2.13;;
26536;SDS011;14204;51.262;5.488;2023-08-21T11:19:31;6.28;;;2.33;;
26536;SDS011;14204;51.262;5.488;2023-08-21T11:22:00;5.00;;;2.05;;
26536;SDS011;14204;51.262;5.488;2023-08-21T11:26:57;4.32;;;1.85;;
26536;SDS011;14204;51.262;5.488;2023-08-21T11:29:24;12.68;;;2.30;;
26536;SDS011;14204;51.262;5.488;2023-08-21T11:31:49;3.75;;;2.13;;
26536;SDS011;14204;51.262;5.488;2023-08-21T11:34:19;5.18;;;1.92;;
26536;SDS011;14204;51.262;5.488;2023-08-21T11:36:45;4.22;;;1.85;;
26536;SDS011;14204;51.262;5.488;2023-08-21T11:39:10;4.93;;;1.85;;
26536;SDS011;14204;51.262;5.488;2023-08-21T11:41:53;4.50;;;1.65;;
26536;SDS011;14204;51.262;5.488;2023-08-21T11:44:22;4.57;;;1.73;;
26536;SDS011;14204;51.262;5.488;2023-08-21T11:46:50;6.70;;;1.63;;
26536;SDS011;14204;51.262;5.488;2023-08-21T11:49:17;4.82;;;1.95;;
26536;SDS011;14204;51.262;5.488;2023-08-21T11:51:44;4.63;;;1.60;;
26536;SDS011;14204;51.262;5.488;2023-08-21T11:54:11;5.28;;;2.00;;
26536;SDS011;14204;51.262;5.488;2023-08-21T11:56:38;4.00;;;1.63;;
26536;SDS011;14204;51.262;5.488;2023-08-21T11:59:05;5.65;;;1.80;;
26536;SDS011;14204;51.262;5.488;2023-08-21T12:01:34;5.25;;;1.90;;
26536;SDS011;14204;51.262;5.488;2023-08-21T12:04:00;6.13;;;1.98;;
26536;SDS011;14204;51.262;5.488;2023-08-21T12:06:25;3.88;;;1.58;;
26536;SDS011;14204;51.262;5.488;2023-08-21T12:08:52;5.47;;;1.85;;
26536;SDS011;14204;51.262;5.488;2023-08-21T12:11:18;3.60;;;1.77;;
26536;SDS011;14204;51.262;5.488;2023-08-21T12:13:44;7.03;;;2.10;;
26536;SDS011;14204;51.262;5.488;2023-08-21T12:16:09;5.35;;;2.03;;
26536;SDS011;14204;51.262;5.488;2023-08-21T12:18:35;4.55;;;2.00;;
26536;SDS011;14204;51.262;5.488;2023-08-21T12:21:01;4.60;;;1.98;;
26536;SDS011;14204;51.262;5.488;2023-08-21T12:23:27;3.83;;;2.00;;
26536;SDS011;14204;51.262;5.488;2023-08-21T12:25:53;3.55;;;1.50;;
26536;SDS011;14204;51.262;5.488;2023-08-21T12:28:19;6.55;;;2.35;;
26536;SDS011;14204;51.262;5.488;2023-08-21T12:30:45;5.32;;;1.80;;
26536;SDS011;14204;51.262;5.488;2023-08-21T12:33:12;5.55;;;1.70;;
26536;SDS011;14204;51.262;5.488;2023-08-21T12:35:38;5.50;;;1.83;;
26536;SDS011;14204;51.262;5.488;2023-08-21T12:38:09;3.92;;;1.70;;
26536;SDS011;14204;51.262;5.488;2023-08-21T12:40:37;4.53;;;2.10;;
26536;SDS011;14204;51.262;5.488;2023-08-21T12:43:04;2.95;;;1.58;;
26536;SDS011;14204;51.262;5.488;2023-08-21T12:45:30;4.75;;;1.85;;
26536;SDS011;14204;51.262;5.488;2023-08-21T12:47:55;4.97;;;1.90;;
26536;SDS011;14204;51.262;5.488;2023-08-21T12:50:21;7.22;;;1.70;;
26536;SDS011;14204;51.262;5.488;2023-08-21T12:52:47;3.97;;;2.20;;
26536;SDS011;14204;51.262;5.488;2023-08-21T12:55:13;5.43;;;1.80;;
26536;SDS011;14204;51.262;5.488;2023-08-21T12:57:39;26.15;;;2.65;;
26536;SDS011;14204;51.262;5.488;2023-08-21T13:00:05;5.80;;;1.92;;
26536;SDS011;14204;51.262;5.488;2023-08-21T13:02:31;6.65;;;2.08;;
26536;SDS011;14204;51.262;5.488;2023-08-21T13:04:57;9.43;;;3.42;;
26536;SDS011;14204;51.262;5.488;2023-08-21T13:07:23;4.78;;;2.15;;
26536;SDS011;14204;51.262;5.488;2023-08-21T13:09:48;3.08;;;1.80;;
26536;SDS011;14204;51.262;5.488;2023-08-21T13:12:14;4.32;;;1.98;;
26536;SDS011;14204;51.262;5.488;2023-08-21T13:14:41;6.38;;;2.13;;
26536;SDS011;14204;51.262;5.488;2023-08-21T13:17:07;4.80;;;1.90;;
26536;SDS011;14204;51.262;5.488;2023-08-21T13:19:33;5.80;;;2.13;;
26536;SDS011;14204;51.262;5.488;2023-08-21T13:21:59;6.70;;;1.90;;
26536;SDS011;14204;51.262;5.488;2023-08-21T13:24:25;27.55;;;3.53;;
26536;SDS011;14204;51.262;5.488;2023-08-21T13:26:53;5.78;;;2.08;;
26536;SDS011;14204;51.262;5.488;2023-08-21T13:29:19;11.88;;;3.28;;
26536;SDS011;14204;51.262;5.488;2023-08-21T13:31:56;5.15;;;2.25;;
26536;SDS011;14204;51.262;5.488;2023-08-21T13:34:26;4.65;;;2.00;;
26536;SDS011;14204;51.262;5.488;2023-08-21T13:36:57;6.23;;;2.30;;
26536;SDS011;14204;51.262;5.488;2023-08-21T13:39:28;4.38;;;2.28;;
26536;SDS011;14204;51.262;5.488;2023-08-21T13:41:53;6.43;;;2.30;;
26536;SDS011;14204;51.262;5.488;2023-08-21T13:44:19;3.75;;;2.00;;
26536;SDS011;14204;51.262;5.488;2023-08-21T13:46:45;10.57;;;2.35;;
26536;SDS011;14204;51.262;5.488;2023-08-21T13:49:11;4.57;;;1.77;;
26536;SDS011;14204;51.262;5.488;2023-08-21T13:51:36;2.67;;;1.70;;
26536;SDS011;14204;51.262;5.488;2023-08-21T13:54:02;2.97;;;2.15;;
26536;SDS011;14204;51.262;5.488;2023-08-21T13:56:28;3.50;;;1.52;;
26536;SDS011;14204;51.262;5.488;2023-08-21T13:58:54;4.68;;;1.98;;
26536;SDS011;14204;51.262;5.488;2023-08-21T14:01:29;5.47;;;1.70;;
26536;SDS011;14204;51.262;5.488;2023-08-21T14:03:58;4.57;;;1.80;;
26536;SDS011;14204;51.262;5.488;2023-08-21T14:06:23;5.03;;;1.73;;
26536;SDS011;14204;51.262;5.488;2023-08-21T14:08:49;5.43;;;1.85;;
26536;SDS011;14204;51.262;5.488;2023-08-21T14:11:15;2.85;;;1.88;;
26536;SDS011;14204;51.262;5.488;2023-08-21T14:13:41;4.32;;;1.77;;
26536;SDS011;14204;51.262;5.488;2023-08-21T14:16:07;6.90;;;2.13;;
26536;SDS011;14204;51.262;5.488;2023-08-21T14:18:32;5.97;;;2.25;;
26536;SDS011;14204;51.262;5.488;2023-08-21T14:20:58;4.88;;;2.08;;
26536;SDS011;14204;51.262;5.488;2023-08-21T14:23:24;3.78;;;1.73;;
26536;SDS011;14204;51.262;5.488;2023-08-21T14:25:50;8.95;;;2.08;;
26536;SDS011;14204;51.262;5.488;2023-08-21T14:28:17;7.72;;;2.00;;
26536;SDS011;14204;51.262;5.488;2023-08-21T14:30:42;2.30;;;1.55;;
26536;SDS011;14204;51.262;5.488;2023-08-21T14:33:10;2.60;;;1.50;;
26536;SDS011;14204;51.262;5.488;2023-08-21T14:35:36;4.97;;;1.52;;
26536;SDS011;14204;51.262;5.488;2023-08-21T14:38:02;8.77;;;2.17;;
26536;SDS011;14204;51.262;5.488;2023-08-21T14:40:28;2.90;;;1.85;;
26536;SDS011;14204;51.262;5.488;2023-08-21T14:42:54;4.72;;;1.80;;
26536;SDS011;14204;51.262;5.488;2023-08-21T14:45:19;4.18;;;1.60;;
26536;SDS011;14204;51.262;5.488;2023-08-21T14:47:46;21.48;;;2.95;;
26536;SDS011;14204;51.262;5.488;2023-08-21T14:50:12;6.97;;;1.80;;
26536;SDS011;14204;51.262;5.488;2023-08-21T14:52:37;2.80;;;1.67;;
26536;SDS011;14204;51.262;5.488;2023-08-21T14:55:03;2.88;;;1.48;;
26536;SDS011;14204;51.262;5.488;2023-08-21T14:57:29;4.90;;;1.77;;
26536;SDS011;14204;51.262;5.488;2023-08-21T14:59:55;4.15;;;1.70;;
26536;SDS011;14204;51.262;5.488;2023-08-21T15:02:21;5.95;;;1.70;;
26536;SDS011;14204;51.262;5.488;2023-08-21T15:04:47;3.70;;;1.70;;
26536;SDS011;14204;51.262;5.488;2023-08-21T15:07:13;5.13;;;2.20;;